Time;durP1;ratioP1;P1;durP2;ratioP2;P2;SDS_P1;SDS_P2;PMS_P1;PMS_P2;Temp;Humidity;BMP_temperature;BMP_pressure;BME280_temperature;BME280_humidity;BME280_pressure;Samples;Min_cycle;Max_cycle;Signal;HPM_P1;HPM_P2
2022/03/23 00:00:47;;;;;;;22.52;11.75;;;8.40;95.10;;;;;;5067621;28;20032;-74
2022/03/23 00:03:15;;;;;;;21.05;11.38;;;8.30;95.20;;;;;;5082785;28;20024;-74
2022/03/23 00:05:41;;;;;;;29.25;11.45;;;8.30;95.40;;;;;;5049552;28;20025;-73
2022/03/23 00:08:08;;;;;;;23.80;11.90;;;8.20;95.60;;;;;;5066334;28;20052;-74
2022/03/23 00:10:34;;;;;;;26.27;12.02;;;8.20;95.70;;;;;;5067379;28;20338;-73
2022/03/23 00:13:01;;;;;;;24.08;12.05;;;8.10;95.80;;;;;;5082615;28;20016;-73
2022/03/23 00:15:28;;;;;;;21.73;11.00;;;8.10;96.10;;;;;;5102892;28;20031;-74
2022/03/23 00:17:54;;;;;;;20.75;12.27;;;8.00;96.10;;;;;;5084650;28;20032;-75
2022/03/23 00:20:20;;;;;;;22.05;13.05;;;7.90;96.30;;;;;;5102906;28;20039;-75
2022/03/23 00:22:46;;;;;;;19.90;11.63;;;7.90;96.40;;;;;;5086687;28;20020;-75
2022/03/23 00:25:12;;;;;;;21.13;11.68;;;7.90;96.40;;;;;;5086808;28;20306;-75
2022/03/23 00:27:38;;;;;;;21.17;11.18;;;7.90;96.40;;;;;;5086688;28;20028;-73
2022/03/23 00:30:05;;;;;;;23.63;12.82;;;7.90;96.40;;;;;;5102523;28;20082;-74
2022/03/23 00:32:31;;;;;;;24.70;12.27;;;7.80;96.30;;;;;;5086925;28;20021;-73
2022/03/23 00:34:57;;;;;;;21.10;11.55;;;7.80;96.40;;;;;;5102484;28;20047;-76
2022/03/23 00:37:23;;;;;;;23.55;11.93;;;7.70;96.50;;;;;;5102033;28;20363;-75
2022/03/23 00:39:49;;;;;;;27.85;12.30;;;7.80;96.70;;;;;;5086782;28;20025;-74
2022/03/23 00:42:15;;;;;;;25.73;12.45;;;7.80;96.60;;;;;;5085103;28;20070;-75
2022/03/23 00:44:42;;;;;;;24.88;12.02;;;7.80;96.50;;;;;;5085107;28;20215;-74
2022/03/23 00:47:07;;;;;;;20.80;11.98;;;7.80;96.50;;;;;;5102284;28;20043;-74
2022/03/23 00:49:33;;;;;;;25.25;12.20;;;7.80;96.50;;;;;;5102384;28;20032;-74
2022/03/23 00:52:05;;;;;;;21.63;12.40;;;7.70;96.50;;;;;;5086275;28;20068;-73
2022/03/23 00:54:34;;;;;;;27.42;13.05;;;7.60;96.70;;;;;;5085502;28;20035;-74
2022/03/23 00:57:02;;;;;;;24.23;12.90;;;7.60;96.80;;;;;;5102130;28;20329;-76
2022/03/23 00:59:27;;;;;;;29.50;12.95;;;7.60;97.00;;;;;;5102327;28;20039;-75
2022/03/23 01:01:53;;;;;;;27.70;13.23;;;7.60;97.10;;;;;;5086313;28;20024;-73
2022/03/23 01:04:19;;;;;;;23.83;12.63;;;7.50;97.20;;;;;;5084753;28;20020;-75
2022/03/23 01:06:45;;;;;;;27.33;13.57;;;7.40;97.30;;;;;;5101583;28;20047;-75
2022/03/23 01:09:11;;;;;;;24.38;13.57;;;7.50;97.40;;;;;;5102146;28;20211;-77
2022/03/23 01:11:37;;;;;;;31.48;13.98;;;7.40;97.50;;;;;;5097675;28;20082;-74
2022/03/23 01:14:04;;;;;;;29.38;14.15;;;7.40;97.50;;;;;;5048365;28;20048;-73
2022/03/23 01:16:30;;;;;;;27.45;13.80;;;7.40;97.60;;;;;;5081579;28;20021;-73
2022/03/23 01:18:56;;;;;;;36.58;13.65;;;7.40;97.70;;;;;;5063190;28;20020;-74
2022/03/23 01:21:22;;;;;;;26.63;13.57;;;7.30;97.70;;;;;;5064861;28;20032;-74
2022/03/23 01:23:48;;;;;;;27.83;13.32;;;7.40;97.80;;;;;;5064987;28;20028;-73
2022/03/23 01:26:14;;;;;;;32.25;13.90;;;7.30;97.90;;;;;;5081367;28;20059;-76
2022/03/23 01:28:40;;;;;;;29.20;14.15;;;7.30;98.00;;;;;;5064569;28;20017;-74
2022/03/23 01:31:05;;;;;;;29.30;14.02;;;7.10;98.30;;;;;;5064705;28;20024;-74
2022/03/23 01:33:32;;;;;;;23.35;13.25;;;7.10;98.50;;;;;;5064247;28;20021;-74
2022/03/23 01:35:58;;;;;;;25.35;13.65;;;7.10;98.60;;;;;;5064499;28;20025;-73
2022/03/23 01:38:23;;;;;;;27.08;12.90;;;7.10;98.70;;;;;;5064444;28;20031;-74
2022/03/23 01:40:50;;;;;;;26.38;12.55;;;7.00;98.80;;;;;;5065557;28;20295;-74
2022/03/23 01:43:15;;;;;;;27.00;12.65;;;7.00;98.80;;;;;;5064304;28;20067;-73
2022/03/23 01:45:41;;;;;;;27.33;12.73;;;7.00;98.80;;;;;;5065584;28;20238;-76
2022/03/23 01:48:07;;;;;;;25.45;12.38;;;7.00;98.70;;;;;;5080901;28;20100;-74
2022/03/23 01:50:32;;;;;;;25.30;13.02;;;6.90;98.80;;;;;;5065595;28;20024;-73
2022/03/23 01:52:58;;;;;;;32.35;12.05;;;6.90;98.90;;;;;;5065056;28;20071;-75
2022/03/23 01:55:24;;;;;;;23.85;12.68;;;6.80;99.00;;;;;;5063929;28;20035;-73
2022/03/23 01:57:52;;;;;;;27.70;12.93;;;6.80;99.10;;;;;;5063960;28;20044;-72
2022/03/23 02:00:19;;;;;;;27.23;13.15;;;6.70;99.30;;;;;;5064338;28;20027;-73
2022/03/23 02:02:45;;;;;;;27.55;13.43;;;6.70;99.50;;;;;;5063706;28;20300;-73
2022/03/23 02:05:12;;;;;;;27.75;13.90;;;6.60;99.90;;;;;;5065200;28;20017;-74
2022/03/23 02:07:39;;;;;;;28.83;13.05;;;6.50;99.90;;;;;;5064725;28;20059;-73
2022/03/23 02:10:07;;;;;;;27.33;13.50;;;6.50;99.90;;;;;;5080607;28;20055;-73
2022/03/23 02:12:33;;;;;;;28.35;13.88;;;6.50;99.90;;;;;;5076517;28;20104;-73
2022/03/23 02:15:08;;;;;;;25.15;13.25;;;6.50;99.90;;;;;;5099841;28;20295;-73
2022/03/23 02:17:34;;;;;;;23.98;13.70;;;6.50;99.90;;;;;;5099363;28;20028;-74
2022/03/23 02:20:01;;;;;;;24.35;12.95;;;6.50;99.90;;;;;;5082446;28;20092;-74
2022/03/23 02:22:26;;;;;;;23.75;12.65;;;6.60;99.90;;;;;;5100595;28;20020;-74
2022/03/23 02:24:52;;;;;;;22.42;12.98;;;6.60;99.90;;;;;;5100554;28;20215;-73
2022/03/23 02:27:18;;;;;;;23.45;13.38;;;6.70;99.90;;;;;;5083458;28;20022;-74
2022/03/23 02:29:44;;;;;;;27.17;13.73;;;6.60;99.90;;;;;;5084629;28;20070;-75
2022/03/23 02:32:10;;;;;;;25.63;13.50;;;6.50;99.90;;;;;;5084685;28;20028;-74
2022/03/23 02:34:36;;;;;;;24.73;14.13;;;6.40;99.90;;;;;;5084515;28;20029;-73
2022/03/23 02:37:01;;;;;;;25.80;13.88;;;6.30;99.90;;;;;;5082974;28;20311;-72
2022/03/23 02:39:27;;;;;;;24.50;13.65;;;6.30;99.90;;;;;;5082951;28;20219;-73
2022/03/23 02:41:54;;;;;;;29.38;12.73;;;6.30;99.90;;;;;;5084331;28;20020;-73
2022/03/23 02:44:20;;;;;;;27.45;14.07;;;6.40;99.90;;;;;;5084270;28;20012;-74
2022/03/23 02:46:46;;;;;;;27.30;14.55;;;6.30;99.90;;;;;;5099941;28;20391;-74
2022/03/23 02:49:15;;;;;;;22.27;14.15;;;6.30;99.90;;;;;;5100016;28;20029;-72
2022/03/23 02:51:41;;;;;;;22.92;13.43;;;6.30;99.90;;;;;;5099695;28;20028;-72
2022/03/23 03:02:57;;;;;;;28.70;14.52;;;6.10;99.90;;;;;;5097366;28;20090;-73
2022/03/23 03:05:23;;;;;;;23.98;14.75;;;6.10;99.90;;;;;;5082728;28;20028;-72
2022/03/23 03:10:34;;;;;;;29.20;14.40;;;6.00;99.90;;;;;;5097171;28;20012;-75
2022/03/23 03:13:00;;;;;;;23.70;14.05;;;6.00;99.90;;;;;;5099411;28;20032;-74
2022/03/23 03:15:26;;;;;;;24.38;13.75;;;5.90;99.90;;;;;;5082876;28;20299;-73
2022/03/23 03:17:56;;;;;;;21.00;14.10;;;5.90;99.90;;;;;;5082539;28;20107;-74
2022/03/23 03:20:22;;;;;;;25.52;14.40;;;5.90;99.90;;;;;;5081213;28;20028;-74
2022/03/23 03:22:48;;;;;;;25.27;14.50;;;5.90;99.90;;;;;;5082761;28;20099;-75
2022/03/23 03:25:16;;;;;;;26.85;13.77;;;5.90;99.90;;;;;;5082922;28;20024;-74
2022/03/23 03:27:42;;;;;;;26.13;13.40;;;6.00;99.90;;;;;;5082376;28;20259;-73
2022/03/23 03:30:11;;;;;;;29.98;14.30;;;6.00;99.90;;;;;;5083698;28;20048;-74
2022/03/23 03:32:37;;;;;;;24.95;14.10;;;6.00;99.90;;;;;;5082427;28;20044;-75
2022/03/23 03:35:04;;;;;;;26.88;13.48;;;6.00;99.90;;;;;;5083808;28;20075;-74
2022/03/23 03:37:30;;;;;;;27.92;13.77;;;6.10;99.90;;;;;;5082228;28;20025;-74
2022/03/23 03:39:55;;;;;;;29.90;14.45;;;6.00;99.90;;;;;;5083702;28;20079;-76
2022/03/23 03:42:21;;;;;;;33.90;15.68;;;5.90;99.90;;;;;;5082395;28;20025;-75
2022/03/23 03:44:50;;;;;;;30.02;15.95;;;5.80;99.90;;;;;;5082403;28;20023;-75
2022/03/23 03:47:17;;;;;;;29.45;16.48;;;5.80;99.90;;;;;;5066411;28;20143;-76
2022/03/23 03:49:43;;;;;;;29.08;15.57;;;5.90;99.90;;;;;;5082166;28;20323;-74
2022/03/23 03:52:08;;;;;;;32.50;14.88;;;5.80;99.90;;;;;;5083453;28;20098;-76
2022/03/23 03:54:34;;;;;;;32.30;15.25;;;5.80;99.90;;;;;;5065359;28;20066;-75
2022/03/23 03:57:00;;;;;;;34.55;16.10;;;5.90;99.90;;;;;;5082320;28;20223;-74
2022/03/23 03:59:25;;;;;;;30.63;17.27;;;5.90;99.90;;;;;;5082689;28;20017;-75
2022/03/23 04:01:51;;;;;;;28.77;16.58;;;5.80;99.90;;;;;;5083404;28;20031;-75
2022/03/23 04:04:17;;;;;;;27.98;15.88;;;5.70;99.90;;;;;;5099244;28;20020;-74
2022/03/23 04:10:06;;;;;;;32.28;14.85;;;5.60;99.90;;;;;;5082736;28;20016;-75
2022/03/23 04:12:32;;;;;;;27.17;15.18;;;5.50;99.90;;;;;;5062204;28;20300;-75
2022/03/23 04:14:58;;;;;;;28.88;15.15;;;5.50;99.90;;;;;;5062373;28;20075;-75
2022/03/23 04:17:23;;;;;;;31.10;15.43;;;5.50;99.90;;;;;;5045273;28;20036;-76
2022/03/23 04:19:49;;;;;;;28.08;15.82;;;5.50;99.90;;;;;;5060531;28;20021;-75
2022/03/23 04:22:15;;;;;;;30.40;16.02;;;5.40;99.90;;;;;;5045741;28;20032;-76
2022/03/23 04:24:41;;;;;;;30.13;16.83;;;5.40;99.90;;;;;;5045567;28;20059;-73
2022/03/23 04:27:07;;;;;;;29.30;16.30;;;5.40;99.90;;;;;;5063099;28;20204;-74
2022/03/23 04:29:32;;;;;;;30.30;16.58;;;5.40;99.90;;;;;;5045441;28;20563;-76
2022/03/23 04:31:58;;;;;;;26.17;15.98;;;5.40;99.90;;;;;;5078579;28;20021;-75
2022/03/23 04:34:24;;;;;;;28.48;15.45;;;5.40;99.90;;;;;;5045429;28;20020;-76
2022/03/23 04:36:49;;;;;;;27.65;14.52;;;5.40;99.90;;;;;;5062813;28;20036;-75
2022/03/23 04:39:15;;;;;;;29.65;15.57;;;5.30;99.90;;;;;;5064592;28;20025;-73
2022/03/23 04:41:41;;;;;;;30.10;15.85;;;5.30;99.90;;;;;;5065429;28;20279;-75
2022/03/23 04:44:06;;;;;;;31.33;16.45;;;5.30;99.90;;;;;;5065685;28;20021;-75
2022/03/23 04:46:32;;;;;;;29.88;16.20;;;5.20;99.90;;;;;;5065587;28;20215;-74
2022/03/23 04:48:58;;;;;;;32.05;16.73;;;5.20;99.90;;;;;;5066641;28;20017;-73
2022/03/23 04:51:24;;;;;;;31.52;16.42;;;5.30;99.90;;;;;;5048504;28;20031;-75
2022/03/23 04:53:49;;;;;;;27.33;15.48;;;5.30;99.90;;;;;;5066139;28;20045;-74
2022/03/23 04:56:15;;;;;;;30.98;15.18;;;5.20;99.90;;;;;;5048580;28;20021;-75
2022/03/23 04:58:42;;;;;;;28.23;16.48;;;5.20;99.90;;;;;;5048530;28;20033;-74
2022/03/23 05:01:08;;;;;;;27.60;15.93;;;5.20;99.90;;;;;;5065102;28;20048;-74
2022/03/23 05:03:34;;;;;;;29.30;16.15;;;5.10;99.90;;;;;;5048658;28;20021;-75
2022/03/23 05:06:00;;;;;;;31.58;16.13;;;5.10;99.90;;;;;;5048280;28;20025;-74
2022/03/23 05:08:26;;;;;;;28.58;15.07;;;5.10;99.90;;;;;;5066312;28;20056;-74
2022/03/23 05:10:52;;;;;;;32.65;16.13;;;5.10;99.90;;;;;;5081787;28;20036;-76
2022/03/23 05:13:18;;;;;;;29.00;16.25;;;5.10;99.90;;;;;;5065981;28;20021;-75
2022/03/23 05:15:44;;;;;;;24.95;15.85;;;5.10;99.90;;;;;;5068522;28;20032;-75
2022/03/23 05:18:09;;;;;;;29.50;17.02;;;5.10;99.90;;;;;;5086186;28;20078;-75
2022/03/23 05:20:35;;;;;;;25.50;16.45;;;5.10;99.90;;;;;;5082874;28;20025;-75
2022/03/23 05:23:02;;;;;;;26.27;15.63;;;5.10;99.90;;;;;;5086056;28;20024;-75
2022/03/23 05:25:27;;;;;;;30.00;17.25;;;5.00;99.90;;;;;;5085166;28;20066;-76
2022/03/23 05:27:53;;;;;;;30.95;17.10;;;4.90;99.90;;;;;;5067966;28;20020;-76
2022/03/23 05:30:19;;;;;;;33.88;18.73;;;4.90;99.90;;;;;;5085887;28;20308;-74
2022/03/23 05:32:45;;;;;;;32.13;16.83;;;4.90;99.90;;;;;;5084386;28;20031;-75
2022/03/23 05:35:12;;;;;;;26.20;16.13;;;4.90;99.90;;;;;;5084790;28;20028;-74
2022/03/23 05:37:38;;;;;;;29.52;16.20;;;4.90;99.90;;;;;;5100923;28;20041;-77
2022/03/23 05:40:04;;;;;;;33.92;17.95;;;4.90;99.90;;;;;;5084683;28;20079;-74
2022/03/23 05:42:30;;;;;;;33.60;17.45;;;4.90;99.90;;;;;;5067664;28;20017;-74
2022/03/23 05:44:56;;;;;;;34.83;17.42;;;4.90;99.90;;;;;;5067770;28;20020;-74
2022/03/23 05:47:22;;;;;;;33.60;17.33;;;4.90;99.90;;;;;;5067771;28;20020;-74
2022/03/23 05:49:47;;;;;;;34.33;17.27;;;4.80;99.90;;;;;;5083367;28;20020;-74
2022/03/23 05:52:13;;;;;;;38.92;17.58;;;4.80;99.90;;;;;;5084106;28;20052;-75
2022/03/23 05:54:39;;;;;;;33.67;16.50;;;4.80;99.90;;;;;;5085168;28;20016;-76
2022/03/23 05:57:05;;;;;;;33.65;16.92;;;4.70;99.90;;;;;;5084162;28;20024;-75
2022/03/23 05:59:32;;;;;;;27.67;15.98;;;4.70;99.90;;;;;;5084380;28;20031;-75
2022/03/23 06:01:59;;;;;;;27.02;16.20;;;4.70;99.90;;;;;;5083991;28;20077;-74
2022/03/23 06:04:24;;;;;;;30.92;16.40;;;4.70;99.90;;;;;;5084125;28;20032;-74
2022/03/23 06:06:52;;;;;;;33.25;16.80;;;4.60;99.90;;;;;;5083378;28;20282;-74
2022/03/23 06:09:19;;;;;;;34.88;16.70;;;4.70;99.90;;;;;;5085163;28;20100;-76
2022/03/23 06:11:45;;;;;;;35.60;17.10;;;4.70;99.90;;;;;;5080068;28;20090;-74
2022/03/23 06:14:11;;;;;;;32.33;17.80;;;4.70;99.90;;;;;;5047383;28;20363;-76
2022/03/23 06:16:37;;;;;;;33.63;17.80;;;4.80;99.90;;;;;;5063943;28;20033;-75
2022/03/23 06:19:02;;;;;;;37.42;17.80;;;4.80;99.90;;;;;;5063885;28;20096;-75
2022/03/23 06:21:29;;;;;;;31.52;17.60;;;4.80;99.90;;;;;;5062840;28;20200;-74
2022/03/23 06:23:55;;;;;;;37.10;17.55;;;4.70;99.90;;;;;;5063911;28;20027;-76
2022/03/23 06:26:21;;;;;;;38.50;17.70;;;4.70;99.90;;;;;;5046691;28;20016;-75
2022/03/23 06:28:46;;;;;;;31.50;18.50;;;4.70;99.90;;;;;;5063601;28;20028;-76
2022/03/23 06:31:12;;;;;;;31.85;17.88;;;4.80;99.90;;;;;;5046790;28;20025;-75
2022/03/23 06:33:37;;;;;;;35.60;17.60;;;4.90;99.90;;;;;;5064399;28;20027;-76
2022/03/23 06:36:03;;;;;;;37.20;18.90;;;4.90;99.90;;;;;;5064410;28;20067;-77
2022/03/23 06:38:30;;;;;;;33.97;17.80;;;4.90;99.90;;;;;;5063481;28;20032;-76
2022/03/23 06:40:56;;;;;;;35.20;18.08;;;4.90;99.90;;;;;;5046659;28;20044;-76
2022/03/23 06:43:22;;;;;;;35.45;17.95;;;4.90;99.90;;;;;;5046564;28;20273;-74
2022/03/23 06:45:48;;;;;;;39.42;18.67;;;4.90;99.90;;;;;;5046145;28;20025;-76
2022/03/23 06:48:13;;;;;;;39.47;18.85;;;4.90;99.90;;;;;;5046438;28;20092;-77
2022/03/23 06:50:39;;;;;;;38.33;17.65;;;5.00;99.90;;;;;;5063002;28;20016;-76
2022/03/23 06:53:05;;;;;;;38.08;18.58;;;5.10;99.90;;;;;;5063513;28;20354;-73
2022/03/23 06:55:31;;;;;;;43.08;17.85;;;5.20;99.90;;;;;;5064058;28;20080;-74
2022/03/23 06:57:56;;;;;;;38.67;18.10;;;5.20;99.90;;;;;;5064248;28;20029;-75
2022/03/23 07:00:22;;;;;;;51.17;17.92;;;5.30;99.90;;;;;;5046042;28;20029;-73
2022/03/23 07:02:50;;;;;;;45.88;19.48;;;5.40;99.90;;;;;;5045716;28;20073;-74
2022/03/23 07:05:17;;;;;;;43.65;18.20;;;5.50;99.90;;;;;;5063036;28;20024;-75
2022/03/23 07:10:29;;;;;;;48.03;19.00;;;5.60;99.90;;;;;;5049016;28;20098;-73
2022/03/23 07:12:57;;;;;;;46.30;19.33;;;5.70;99.90;;;;;;5060605;28;20036;-77
2022/03/23 07:15:23;;;;;;;46.88;19.23;;;5.70;99.90;;;;;;5083052;28;20051;-77
2022/03/23 07:17:49;;;;;;;55.35;20.05;;;5.80;99.90;;;;;;5083827;28;20044;-76
2022/03/23 07:20:15;;;;;;;40.72;20.08;;;5.90;99.90;;;;;;5099545;28;20070;-76
2022/03/23 07:22:43;;;;;;;33.72;19.85;;;6.00;99.90;;;;;;5080733;28;20311;-75
2022/03/23 07:25:09;;;;;;;39.20;19.55;;;6.10;99.90;;;;;;5084275;28;20111;-75
2022/03/23 07:27:34;;;;;;;32.08;18.63;;;6.20;99.90;;;;;;5083888;28;20024;-75
2022/03/23 07:30:00;;;;;;;38.08;19.33;;;6.30;99.90;;;;;;5083680;28;20043;-76
2022/03/23 07:32:26;;;;;;;35.65;19.75;;;6.40;99.90;;;;;;5082353;28;20012;-76
2022/03/23 07:34:52;;;;;;;32.78;18.75;;;6.50;99.90;;;;;;5083787;28;20028;-74
2022/03/23 07:37:18;;;;;;;42.85;20.85;;;6.50;99.90;;;;;;5065259;28;20024;-75
2022/03/23 07:39:43;;;;;;;32.80;20.02;;;6.50;99.90;;;;;;5082548;28;20078;-76
2022/03/23 07:42:09;;;;;;;39.33;19.40;;;6.60;99.90;;;;;;5082005;28;20020;-76
2022/03/23 07:44:35;;;;;;;37.45;20.05;;;6.60;99.90;;;;;;5081992;28;20307;-76
2022/03/23 07:47:02;;;;;;;31.30;18.85;;;6.70;99.90;;;;;;5082518;28;20024;-75
2022/03/23 07:49:28;;;;;;;46.45;19.55;;;6.80;99.90;;;;;;5065614;28;20326;-75
2022/03/23 07:51:54;;;;;;;47.17;21.08;;;6.90;99.90;;;;;;5081624;28;20044;-77
2022/03/23 07:54:20;;;;;;;45.78;19.83;;;7.00;99.90;;;;;;5098989;28;20025;-73
2022/03/23 07:56:45;;;;;;;41.10;20.60;;;7.20;99.90;;;;;;5077860;28;20009;-72
2022/03/23 07:59:11;;;;;;;47.92;20.30;;;7.30;99.90;;;;;;5077777;28;20021;-74
2022/03/23 08:01:37;;;;;;;36.42;19.88;;;7.40;99.90;;;;;;5065130;28;20024;-74
2022/03/23 08:04:05;;;;;;;36.70;20.17;;;7.40;99.90;;;;;;5095470;28;20435;-72
2022/03/23 08:06:33;;;;;;;38.15;20.45;;;7.50;99.90;;;;;;5050229;28;20055;-73
2022/03/23 08:08:58;;;;;;;36.83;20.08;;;7.70;99.90;;;;;;5062258;28;20298;-74
2022/03/23 08:11:24;;;;;;;51.35;21.10;;;7.80;99.70;;;;;;5076819;28;20024;-73
2022/03/23 08:13:49;;;;;;;36.97;21.25;;;7.90;99.60;;;;;;5083862;28;20327;-72
2022/03/23 08:16:15;;;;;;;40.90;21.02;;;8.00;99.50;;;;;;5085375;28;20326;-74
2022/03/23 08:18:41;;;;;;;45.72;21.98;;;8.10;99.30;;;;;;5069519;28;20040;-73
2022/03/23 08:21:06;;;;;;;36.17;20.65;;;8.10;99.00;;;;;;5091237;28;20017;-72
2022/03/23 08:23:32;;;;;;;40.20;21.23;;;8.20;99.10;;;;;;5071370;28;20083;-75
2022/03/23 08:25:58;;;;;;;35.65;20.42;;;8.30;99.00;;;;;;5081828;28;20020;-72
2022/03/23 08:28:24;;;;;;;37.05;20.77;;;8.40;98.70;;;;;;5066208;28;20089;-72
2022/03/23 08:30:49;;;;;;;39.35;21.00;;;8.50;98.90;;;;;;5065732;28;20017;-72
2022/03/23 08:33:15;;;;;;;38.50;21.13;;;8.60;98.40;;;;;;5048675;28;20025;-75
2022/03/23 08:35:41;;;;;;;36.58;20.70;;;8.60;98.40;;;;;;5048734;28;20319;-71
2022/03/23 08:38:07;;;;;;;32.97;19.55;;;8.70;98.20;;;;;;5064820;28;20035;-73
2022/03/23 08:40:34;;;;;;;32.70;20.42;;;8.90;97.90;;;;;;5054937;28;20029;-75
2022/03/23 08:43:01;;;;;;;37.88;20.20;;;9.00;97.40;;;;;;5079882;28;20193;-74
2022/03/23 08:45:30;;;;;;;34.78;19.90;;;9.10;97.20;;;;;;5083900;28;20059;-75
2022/03/23 08:47:56;;;;;;;39.63;20.00;;;9.20;96.90;;;;;;5048309;28;20028;-73
2022/03/23 08:50:21;;;;;;;34.50;20.02;;;9.20;96.80;;;;;;5082949;28;20047;-74
2022/03/23 08:52:47;;;;;;;37.38;20.23;;;9.30;96.80;;;;;;5081365;28;20119;-75
2022/03/23 08:55:16;;;;;;;32.85;20.02;;;9.50;96.90;;;;;;5064572;28;20246;-73
2022/03/23 08:57:42;;;;;;;36.80;19.85;;;9.60;96.30;;;;;;5064981;28;20057;-73
2022/03/23 09:00:09;;;;;;;35.17;19.45;;;9.60;96.10;;;;;;5085460;28;20107;-75
2022/03/23 09:02:35;;;;;;;34.47;19.65;;;9.70;96.00;;;;;;5080928;28;20016;-76
2022/03/23 09:05:01;;;;;;;34.95;19.70;;;9.80;95.50;;;;;;5083009;28;20303;-73
2022/03/23 09:07:26;;;;;;;35.92;19.17;;;9.80;95.20;;;;;;5080548;28;20058;-74
2022/03/23 09:09:52;;;;;;;38.03;20.50;;;9.90;95.00;;;;;;5084715;28;20239;-72
2022/03/23 09:12:18;;;;;;;39.10;20.25;;;10.10;95.10;;;;;;5084478;28;20044;-77
2022/03/23 09:14:43;;;;;;;33.47;19.48;;;10.20;95.10;;;;;;5083493;28;20020;-74
2022/03/23 09:17:09;;;;;;;34.58;19.55;;;10.30;94.90;;;;;;5084623;28;20196;-80
2022/03/23 09:19:35;;;;;;;30.45;18.65;;;10.50;94.60;;;;;;5086353;28;20029;-73
2022/03/23 09:22:00;;;;;;;36.63;18.50;;;10.60;94.20;;;;;;5100644;28;20016;-72
2022/03/23 09:24:27;;;;;;;48.60;20.48;;;10.70;94.30;;;;;;5098632;28;20023;-74
2022/03/23 09:26:54;;;;;;;33.92;18.45;;;10.90;94.20;;;;;;5084733;28;20035;-74
2022/03/23 09:29:20;;;;;;;32.95;18.15;;;11.00;93.60;;;;;;5083800;28;20026;-75
2022/03/23 09:31:46;;;;;;;34.13;18.52;;;11.00;93.50;;;;;;5084655;28;20040;-73
2022/03/23 09:34:12;;;;;;;33.72;19.02;;;11.20;94.00;;;;;;5100602;28;20024;-72
2022/03/23 09:39:23;;;;;;;50.17;19.00;;;11.30;93.20;;;;;;5097618;28;20307;-69
2022/03/23 09:41:49;;;;;;;33.05;18.55;;;11.60;93.50;;;;;;5084867;28;20032;-73
2022/03/23 09:44:15;;;;;;;30.90;17.95;;;11.80;92.40;;;;;;5099925;28;20068;-73
2022/03/23 09:46:43;;;;;;;27.08;17.13;;;11.90;91.90;;;;;;5082900;28;20058;-73
2022/03/23 09:49:09;;;;;;;31.85;18.08;;;12.10;91.50;;;;;;5084794;28;20084;-73
2022/03/23 09:51:37;;;;;;;35.20;17.85;;;12.20;91.70;;;;;;5084005;28;20016;-72
2022/03/23 09:54:04;;;;;;;30.90;17.73;;;12.30;91.60;;;;;;5083284;28;20020;-73
2022/03/23 09:56:30;;;;;;;31.73;17.33;;;12.40;91.00;;;;;;5093698;28;20016;-73
2022/03/23 09:58:56;;;;;;;34.67;17.55;;;12.50;91.10;;;;;;5064277;28;20025;-74
2022/03/23 10:02:01;;;;;;;33.45;17.42;;;12.70;90.80;;;;;;5062534;28;20020;-72
2022/03/23 10:05:06;;;;;;;34.40;16.90;;;12.70;90.50;;;;;;5060259;28;20044;-72
2022/03/23 10:07:52;;;;;;;32.05;17.05;;;12.80;90.20;;;;;;5059845;28;20296;-73
2022/03/23 10:10:57;;;;;;;30.27;16.67;;;12.90;90.10;;;;;;5079790;28;20067;-75
2022/03/23 10:14:03;;;;;;;35.58;17.63;;;13.00;90.30;;;;;;5060017;28;20036;-73
2022/03/23 10:17:08;;;;;;;37.05;17.52;;;13.00;89.70;;;;;;5074288;28;20024;-73
2022/03/23 10:19:42;;;;;;;32.65;17.15;;;13.20;89.50;;;;;;5068286;28;20025;-74
2022/03/23 10:22:09;;;;;;;30.75;17.08;;;13.30;89.30;;;;;;5062731;28;20033;-71
2022/03/23 10:24:35;;;;;;;33.10;17.42;;;13.40;87.60;;;;;;5062401;28;20206;-73
2022/03/23 10:27:06;;;;;;;28.67;17.08;;;13.40;87.70;;;;;;5062443;28;20027;-76
2022/03/23 10:29:32;;;;;;;27.95;17.30;;;13.50;88.40;;;;;;5078578;28;20300;-71
2022/03/23 10:32:09;;;;;;;31.77;17.77;;;13.60;87.70;;;;;;5079003;28;20021;-76
2022/03/23 10:34:45;;;;;;;28.80;16.70;;;13.80;86.30;;;;;;5068033;28;20012;-75
2022/03/23 10:37:12;;;;;;;28.10;15.43;;;13.80;85.80;;;;;;5060851;28;20028;-74
2022/03/23 10:39:38;;;;;;;25.33;15.25;;;13.90;85.80;;;;;;5087388;28;20088;-74
2022/03/23 10:42:08;;;;;;;27.70;14.95;;;14.00;85.70;;;;;;5063527;28;20017;-74
2022/03/23 10:44:34;;;;;;;29.50;15.70;;;14.10;83.90;;;;;;5062429;28;20021;-75
2022/03/23 10:47:00;;;;;;;30.52;15.05;;;14.10;83.90;;;;;;5063238;28;20025;-75
2022/03/23 10:49:37;;;;;;;28.75;15.90;;;14.20;83.90;;;;;;5078396;28;20039;-75
2022/03/23 10:52:13;;;;;;;29.45;16.73;;;14.30;84.80;;;;;;5045782;28;20051;-73
2022/03/23 10:54:51;;;;;;;26.02;15.13;;;14.40;83.80;;;;;;5062180;28;20044;-75
2022/03/23 10:57:17;;;;;;;23.70;14.10;;;14.60;83.00;;;;;;5057278;28;20025;-74
2022/03/23 10:59:46;;;;;;;29.17;14.55;;;14.80;82.30;;;;;;5087573;28;20085;-74
2022/03/23 11:02:13;;;;;;;26.75;12.82;;;14.90;80.50;;;;;;5061302;28;20044;-74
2022/03/23 11:04:52;;;;;;;33.90;14.63;;;14.90;81.00;;;;;;5078221;28;20051;-72
2022/03/23 11:07:30;;;;;;;27.27;13.52;;;15.10;79.50;;;;;;5061084;28;20065;-72
2022/03/23 11:15:51;;;;;;;20.67;13.77;;;15.30;78.80;;;;;;5067992;28;20091;-74
2022/03/23 11:18:20;;;;;;;27.42;13.95;;;15.40;78.00;;;;;;5097867;28;20047;-73
2022/03/23 11:20:55;;;;;;;22.38;12.55;;;15.40;78.90;;;;;;5098304;28;20319;-74
2022/03/23 11:23:24;;;;;;;18.20;11.52;;;15.40;78.30;;;;;;5065097;28;20040;-75
2022/03/23 11:25:53;;;;;;;21.70;11.68;;;15.60;76.50;;;;;;5063072;28;20070;-75
2022/03/23 11:28:20;;;;;;;24.70;11.73;;;15.60;75.70;;;;;;5082386;28;20078;-74
2022/03/23 11:30:48;;;;;;;24.30;11.52;;;15.70;77.10;;;;;;5064716;28;20371;-81
2022/03/23 11:33:16;;;;;;;20.73;11.27;;;15.90;77.40;;;;;;5097635;28;20299;-77
2022/03/23 11:35:48;;;;;;;18.30;11.15;;;16.10;76.20;;;;;;5050294;28;20024;-75
2022/03/23 11:38:19;;;;;;;18.05;10.70;;;16.20;73.40;;;;;;5061393;28;20033;-73
2022/03/23 11:40:46;;;;;;;14.98;10.15;;;16.20;71.00;;;;;;5077599;28;20033;-74
2022/03/23 11:43:14;;;;;;;20.50;10.70;;;16.30;70.80;;;;;;5062858;28;20044;-73
2022/03/23 11:45:42;;;;;;;18.05;10.25;;;16.30;70.10;;;;;;5078171;28;20080;-76
2022/03/23 11:48:24;;;;;;;17.58;10.07;;;16.30;71.60;;;;;;5064849;28;20216;-72
2022/03/23 11:51:23;;;;;;;17.48;10.73;;;16.50;72.40;;;;;;5066530;28;20339;-74
2022/03/23 11:54:21;;;;;;;17.42;10.27;;;16.50;70.30;;;;;;5076993;28;20045;-74
2022/03/23 11:56:56;;;;;;;21.63;10.75;;;16.50;70.90;;;;;;5079109;28;20024;-75
2022/03/23 11:59:24;;;;;;;18.92;11.15;;;16.60;71.60;;;;;;5073827;28;20028;-75
2022/03/23 12:01:50;;;;;;;20.55;10.15;;;16.70;71.10;;;;;;5084706;28;20024;-74
2022/03/23 12:04:22;;;;;;;16.85;9.60;;;16.80;70.50;;;;;;5083933;28;20024;-75
2022/03/23 12:06:59;;;;;;;15.73;8.52;;;17.00;67.60;;;;;;5082793;28;20038;-74
2022/03/23 12:09:42;;;;;;;19.25;8.77;;;17.10;67.20;;;;;;5084542;28;20024;-73
2022/03/23 12:12:28;;;;;;;14.63;9.00;;;17.10;67.60;;;;;;5077631;28;20029;-74
2022/03/23 12:15:33;;;;;;;17.52;8.52;;;17.20;65.90;;;;;;5064530;28;20017;-76
2022/03/23 12:17:59;;;;;;;12.43;7.68;;;17.10;65.80;;;;;;5069401;28;20036;-77
2022/03/23 12:20:39;;;;;;;16.58;7.90;;;17.30;64.70;;;;;;5076228;28;20059;-76
2022/03/23 12:23:42;;;;;;;16.83;7.43;;;17.40;64.20;;;;;;5063834;28;20308;-74
2022/03/23 12:26:14;;;;;;;17.35;8.38;;;17.50;64.10;;;;;;5052433;28;20063;-74
2022/03/23 12:28:50;;;;;;;13.80;7.72;;;17.60;64.10;;;;;;5078884;28;20063;-73
2022/03/23 12:31:16;;;;;;;16.67;7.75;;;17.70;64.20;;;;;;5054381;28;20028;-76
2022/03/23 12:34:18;;;;;;;13.38;7.40;;;17.80;62.30;;;;;;5047176;28;20132;-79
2022/03/23 12:37:02;;;;;;;14.50;7.63;;;17.90;61.10;;;;;;5065797;28;20021;-75
2022/03/23 12:39:35;;;;;;;16.20;7.10;;;18.00;62.00;;;;;;5097779;28;20223;-76
2022/03/23 12:42:16;;;;;;;19.10;8.35;;;18.10;62.10;;;;;;5084952;28;20022;-76
2022/03/23 12:44:48;;;;;;;16.52;7.93;;;18.20;61.50;;;;;;5100055;28;20303;-76
2022/03/23 12:47:25;;;;;;;14.50;7.03;;;18.20;60.80;;;;;;5101041;28;20031;-77
2022/03/23 12:58:24;;;;;;;12.05;7.18;;;18.30;59.80;;;;;;5077678;28;20024;-75
2022/03/23 13:00:54;;;;;;;15.68;7.85;;;18.40;59.10;;;;;;5079736;28;20095;-78
2022/03/23 13:03:54;;;;;;;16.75;8.07;;;18.30;60.00;;;;;;5084086;28;20042;-75
2022/03/23 13:06:30;;;;;;;62.72;12.25;;;18.30;60.00;;;;;;5071225;28;20061;-76
2022/03/23 13:08:56;;;;;;;15.55;7.50;;;18.30;60.00;;;;;;5082440;28;20088;-74
2022/03/23 13:11:25;;;;;;;16.27;7.68;;;18.40;59.70;;;;;;5067176;28;20062;-74
2022/03/23 13:13:54;;;;;;;21.90;8.98;;;18.30;60.30;;;;;;5064298;28;20027;-76
2022/03/23 13:16:23;;;;;;;12.65;7.03;;;18.40;59.60;;;;;;5063665;28;20017;-79